createdAt,value
2018-12-10T00:02:32.425Z,100342.00
2018-12-10T00:05:07.564Z,100353.00
2018-12-10T00:07:40.050Z,100355.00
2018-12-10T00:10:15.696Z,100360.00
2018-12-10T00:12:48.573Z,100354.00
2018-12-10T00:15:23.482Z,100364.00
2018-12-10T00:17:56.443Z,100357.00
2018-12-10T00:20:31.940Z,100360.00
2018-12-10T00:23:05.331Z,100373.00
2018-12-10T00:25:40.523Z,100370.00
2018-12-10T00:28:15.799Z,100384.00
2018-12-10T00:30:48.896Z,100389.00
2018-12-10T00:33:21.989Z,100380.00
2018-12-10T00:35:56.708Z,100392.00
2018-12-10T00:38:26.030Z,100394.00
2018-12-10T00:41:02.131Z,100410.00
2018-12-10T00:43:37.266Z,100403.00
2018-12-10T00:46:10.222Z,100412.00
2018-12-10T00:48:45.547Z,100422.00
2018-12-10T00:51:20.864Z,100420.00
2018-12-10T00:53:55.724Z,100416.00
2018-12-10T00:56:28.756Z,100430.00
2018-12-10T00:59:04.304Z,100426.00
2018-12-10T01:01:37.447Z,100449.00
2018-12-10T01:04:12.209Z,100443.00
2018-12-10T01:06:45.010Z,100476.00
2018-12-10T01:09:18.229Z,100450.00
2018-12-10T01:11:52.889Z,100451.00
2018-12-10T01:14:28.304Z,100460.00
2018-12-10T01:17:00.586Z,100461.00
2018-12-10T01:19:35.765Z,100455.00
2018-12-10T01:22:11.392Z,100411.00
2018-12-10T01:24:42.176Z,100458.00
2018-12-10T01:27:17.077Z,100472.00
2018-12-10T01:29:52.669Z,100462.00
2018-12-10T01:32:25.744Z,100468.00
2018-12-10T01:34:58.513Z,100468.00
2018-12-10T01:40:00.927Z,100472.00
2018-12-10T01:42:35.595Z,100476.00
2018-12-10T01:45:09.235Z,100489.00
2018-12-10T01:47:41.963Z,100480.00
2018-12-10T01:50:15.199Z,100484.00
2018-12-10T01:52:47.581Z,100496.00
2018-12-10T01:55:22.576Z,100508.00
2018-12-10T01:57:58.313Z,100504.00
2018-12-10T02:00:33.210Z,100512.00
2018-12-10T02:03:06.095Z,100514.00
2018-12-10T02:05:38.752Z,100512.00
2018-12-10T02:08:13.733Z,100509.00
2018-12-10T02:10:46.522Z,100523.00
2018-12-10T02:13:18.965Z,100519.00
2018-12-10T02:15:53.959Z,100522.00
2018-12-10T02:18:27.011Z,100529.00
2018-12-10T02:20:59.366Z,100532.00
2018-12-10T02:23:31.982Z,100535.00
2018-12-10T02:26:06.802Z,100528.00
2018-12-10T02:28:44.953Z,100515.00
2018-12-10T02:31:17.441Z,100533.00
2018-12-10T02:33:50.232Z,100529.00
2018-12-10T02:36:22.807Z,100525.00
2018-12-10T02:41:30.196Z,100530.00
2018-12-10T02:44:03.483Z,100529.00
2018-12-10T02:46:36.503Z,100527.00
2018-12-10T02:49:11.452Z,100524.00
2018-12-10T02:51:44.288Z,100527.00
2018-12-10T02:54:16.725Z,100527.00
2018-12-10T02:56:49.147Z,100522.00
2018-12-10T02:59:21.534Z,100527.00
2018-12-10T03:01:57.131Z,100539.00
2018-12-10T03:04:30.055Z,100549.00
2018-12-10T03:07:02.554Z,100546.00
2018-12-10T03:09:37.572Z,100549.00
2018-12-10T03:12:10.498Z,100550.00
2018-12-10T03:14:43.765Z,100565.00
2018-12-10T03:17:18.848Z,100577.00
2018-12-10T03:19:54.086Z,100571.00
2018-12-10T03:22:27.054Z,100570.00
2018-12-10T03:25:01.982Z,100568.00
2018-12-10T03:27:35.042Z,100568.00
2018-12-10T03:30:07.875Z,100575.00
2018-12-10T03:32:41.329Z,100572.00
2018-12-10T03:35:16.767Z,100589.00
2018-12-10T03:37:49.547Z,100579.00
2018-12-10T03:40:24.304Z,100589.00
2018-12-10T03:42:57.292Z,100589.00
2018-12-10T03:45:32.206Z,100571.00
2018-12-10T03:48:05.426Z,100598.00
2018-12-10T03:50:40.229Z,100615.00
2018-12-10T03:53:15.913Z,100607.00
2018-12-10T03:55:48.883Z,100603.00
2018-12-10T03:58:21.363Z,100600.00
2018-12-10T04:00:53.802Z,100600.00
2018-12-10T04:03:28.754Z,100624.00
2018-12-10T04:06:04.486Z,100625.00
2018-12-10T04:08:39.809Z,100628.00
2018-12-10T04:11:12.579Z,100623.00
2018-12-10T04:13:47.599Z,100633.00
2018-12-10T04:16:23.047Z,100627.00
2018-12-10T04:18:58.304Z,100636.00
2018-12-10T04:21:31.484Z,100632.00
2018-12-10T04:24:04.719Z,100634.00
2018-12-10T04:26:40.350Z,100635.00
2018-12-10T04:29:13.456Z,100625.00
2018-12-10T04:31:48.346Z,100644.00
2018-12-10T04:34:23.525Z,100644.00
2018-12-10T04:36:58.873Z,100645.00
2018-12-10T04:39:34.291Z,100643.00
2018-12-10T04:44:36.229Z,100640.00
2018-12-10T04:47:08.581Z,100649.00
2018-12-10T04:49:41.244Z,100641.00
2018-12-10T04:52:11.808Z,100643.00
2018-12-10T04:54:45.616Z,100647.00
2018-12-10T04:57:20.694Z,100641.00
2018-12-10T04:59:56.483Z,100653.00
2018-12-10T05:02:31.851Z,100666.00
2018-12-10T05:05:07.131Z,100654.00
2018-12-10T05:07:42.352Z,100666.00
2018-12-10T05:10:17.962Z,100680.00
2018-12-10T05:12:53.306Z,100677.00
2018-12-10T05:15:29.612Z,100683.00
2018-12-10T05:18:02.537Z,100693.00
2018-12-10T05:20:35.675Z,100677.00
2018-12-10T05:23:08.160Z,100688.00
2018-12-10T05:25:40.549Z,100683.00
2018-12-10T05:28:13.309Z,100689.00
2018-12-10T05:30:48.122Z,100691.00
2018-12-10T05:33:23.074Z,100693.00
2018-12-10T05:35:58.079Z,100700.00
2018-12-10T05:38:33.519Z,100693.00
2018-12-10T05:41:06.629Z,100710.00
2018-12-10T05:43:39.840Z,100706.00
2018-12-10T05:46:16.671Z,100666.00
2018-12-10T05:48:51.844Z,100712.00
2018-12-10T05:51:25.125Z,100701.00
2018-12-10T05:54:00.011Z,100701.00
2018-12-10T05:56:32.924Z,100712.00
2018-12-10T05:59:08.459Z,100720.00
2018-12-10T06:01:41.593Z,100715.00
2018-12-10T06:04:14.237Z,100719.00
2018-12-10T06:06:46.945Z,100719.00
2018-12-10T06:09:19.599Z,100726.00
2018-12-10T06:11:52.361Z,100719.00
2018-12-10T06:14:27.535Z,100723.00
2018-12-10T06:17:04.174Z,100733.00
2018-12-10T06:19:36.937Z,100729.00
2018-12-10T06:22:09.578Z,100735.00
2018-12-10T06:24:44.710Z,100741.00
2018-12-10T06:27:20.115Z,100737.00
2018-12-10T06:29:55.701Z,100738.00
2018-12-10T06:32:28.750Z,100751.00
2018-12-10T06:35:01.378Z,100748.00
2018-12-10T06:37:37.546Z,100748.00
2018-12-10T06:40:08.828Z,100762.00
2018-12-10T06:42:39.234Z,100749.00
2018-12-10T06:45:17.638Z,100759.00
2018-12-10T06:47:50.421Z,100763.00
2018-12-10T06:50:25.278Z,100762.00
2018-12-10T06:52:58.404Z,100770.00
2018-12-10T06:55:37.720Z,100769.00
2018-12-10T06:58:10.379Z,100775.00
2018-12-10T07:00:45.374Z,100778.00
2018-12-10T07:03:18.591Z,100773.00
2018-12-10T07:05:51.689Z,100775.00
2018-12-10T07:08:26.939Z,100783.00
2018-12-10T07:11:02.683Z,100793.00
2018-12-10T07:13:38.140Z,100787.00
2018-12-10T07:16:12.059Z,100795.00
2018-12-10T07:18:42.756Z,100743.00
2018-12-10T07:21:17.573Z,100810.00
2018-12-10T07:23:50.761Z,100793.00
2018-12-10T07:26:26.205Z,100801.00
2018-12-10T07:29:01.749Z,100804.00
2018-12-10T07:31:48.016Z,100810.00
2018-12-10T07:34:23.309Z,100816.00
2018-12-10T07:36:58.794Z,100826.00
2018-12-10T07:39:34.401Z,100826.00
2018-12-10T07:42:09.687Z,100832.00
2018-12-10T07:44:40.722Z,100768.00
2018-12-10T07:49:39.124Z,100836.00
2018-12-10T07:52:08.410Z,100839.00
2018-12-10T07:54:37.678Z,100848.00
2018-12-10T07:57:06.947Z,100839.00
2018-12-10T07:59:36.175Z,100853.00
2018-12-10T08:02:05.498Z,100849.00
2018-12-10T08:04:34.812Z,100847.00
2018-12-10T08:07:04.209Z,100854.00
2018-12-10T08:09:35.798Z,100853.00
2018-12-10T08:12:05.203Z,100846.00
2018-12-10T08:14:34.582Z,100858.00
2018-12-10T08:17:04.115Z,100858.00
2018-12-10T08:19:33.439Z,100848.00
2018-12-10T08:22:02.778Z,100861.00
2018-12-10T08:24:32.043Z,100861.00
2018-12-10T08:27:01.347Z,100860.00
2018-12-10T08:29:30.659Z,100866.00
2018-12-10T08:32:00.069Z,100870.00
2018-12-10T08:34:29.490Z,100875.00
2018-12-10T08:36:58.779Z,100872.00
2018-12-10T08:39:28.048Z,100888.00
2018-12-10T08:41:57.416Z,100874.00
2018-12-10T08:44:26.674Z,100852.00
2018-12-10T08:46:55.979Z,100859.00
2018-12-10T08:49:25.305Z,100864.00
2018-12-10T08:51:54.620Z,100860.00
2018-12-10T08:54:23.894Z,100865.00
2018-12-10T08:56:53.215Z,100874.00
2018-12-10T08:59:23.576Z,100868.00
2018-12-10T09:01:52.891Z,100868.00
2018-12-10T09:04:22.145Z,100879.00
2018-12-10T09:06:51.546Z,100890.00
2018-12-10T09:09:20.844Z,100880.00
2018-12-10T09:11:50.127Z,100888.00
2018-12-10T09:14:19.435Z,100901.00
2018-12-10T09:16:48.711Z,100903.00
2018-12-10T09:19:18.028Z,100915.00
2018-12-10T09:21:47.251Z,100905.00
2018-12-10T09:24:16.524Z,100898.00
2018-12-10T09:26:46.004Z,100903.00
2018-12-10T09:29:15.270Z,100915.00
2018-12-10T09:31:44.472Z,100909.00
2018-12-10T09:34:13.756Z,100913.00
2018-12-10T09:36:42.992Z,100926.00
2018-12-10T09:39:12.359Z,100928.00
2018-12-10T09:41:42.672Z,100929.00
2018-12-10T09:44:11.930Z,100935.00
2018-12-10T09:46:41.212Z,100930.00
2018-12-10T09:49:10.428Z,100923.00
2018-12-10T09:51:39.719Z,100926.00
2018-12-10T09:54:09.119Z,100935.00
2018-12-10T09:56:38.466Z,100905.00
2018-12-10T09:59:07.780Z,100925.00
2018-12-10T10:01:37.057Z,100922.00
2018-12-10T10:04:06.370Z,100945.00
2018-12-10T10:06:35.874Z,100936.00
2018-12-10T10:09:07.486Z,100927.00
2018-12-10T10:11:36.876Z,100933.00
2018-12-10T10:14:06.144Z,100934.00
2018-12-10T10:16:36.508Z,100942.00
2018-12-10T10:19:05.726Z,100930.00
2018-12-10T10:21:34.959Z,100929.00
2018-12-10T10:24:04.416Z,100942.00
2018-12-10T10:26:33.677Z,100936.00
2018-12-10T10:29:02.984Z,100928.00
2018-12-10T10:31:32.263Z,100922.00
2018-12-10T10:34:01.546Z,100923.00
2018-12-10T10:36:30.971Z,100920.00
2018-12-10T10:39:00.327Z,100909.00
2018-12-10T10:41:31.442Z,100914.00
2018-12-10T10:44:02.014Z,100917.00
2018-12-10T10:46:31.401Z,100914.00
2018-12-10T10:49:00.776Z,100917.00
2018-12-10T10:51:30.106Z,100923.00
2018-12-10T10:53:59.444Z,100920.00
2018-12-10T10:56:28.724Z,100928.00
2018-12-10T10:58:58.020Z,100916.00
2018-12-10T11:01:32.604Z,100917.00
2018-12-10T11:04:03.942Z,100917.00
2018-12-10T11:06:33.295Z,100919.00
2018-12-10T11:09:02.583Z,100910.00
2018-12-10T11:11:31.927Z,100905.00
2018-12-10T11:14:01.192Z,100907.00
2018-12-10T11:16:30.575Z,100906.00
2018-12-10T11:18:59.832Z,100902.00
2018-12-10T11:21:29.332Z,100910.00
2018-12-10T11:23:58.576Z,100914.00
2018-12-10T11:26:27.821Z,100901.00
2018-12-10T11:28:57.088Z,100902.00
2018-12-10T11:31:26.363Z,100891.00
2018-12-10T11:33:56.133Z,100894.00
2018-12-10T11:36:25.621Z,100890.00
2018-12-10T11:38:58.101Z,100880.00
2018-12-10T11:41:27.532Z,100892.00
2018-12-10T11:43:56.815Z,100899.00
2018-12-10T11:46:26.075Z,100893.00
2018-12-10T11:48:55.335Z,100912.00
2018-12-10T11:51:24.704Z,100894.00
2018-12-10T11:53:54.057Z,100903.00
2018-12-10T11:56:23.512Z,100912.00
2018-12-10T11:58:52.820Z,100915.00
2018-12-10T12:01:22.046Z,100899.00
2018-12-10T12:03:51.309Z,100903.00
2018-12-10T12:06:20.577Z,100921.00
2018-12-10T12:08:49.851Z,100928.00
2018-12-10T12:11:19.157Z,100974.00
2018-12-10T12:13:48.461Z,100908.00
2018-12-10T12:16:17.723Z,100922.00
2018-12-10T12:18:47.024Z,100905.00
2018-12-10T12:21:16.497Z,100893.00
2018-12-10T12:23:45.802Z,100906.00
2018-12-10T12:26:15.126Z,100901.00
2018-12-10T12:28:44.398Z,100901.00
2018-12-10T12:31:13.664Z,100905.00
2018-12-10T12:33:42.988Z,100898.00
2018-12-10T12:36:12.390Z,100899.00
2018-12-10T12:38:41.698Z,100896.00
2018-12-10T12:41:10.922Z,100903.00
2018-12-10T12:43:40.205Z,100894.00
2018-12-10T12:46:09.492Z,100905.00
2018-12-10T12:48:38.780Z,100903.00
2018-12-10T12:51:08.059Z,100901.00
2018-12-10T12:53:37.323Z,100894.00
2018-12-10T12:56:06.626Z,100904.00
2018-12-10T12:58:35.895Z,100908.00
2018-12-10T13:01:05.299Z,100897.00
2018-12-10T13:03:34.665Z,100900.00
2018-12-10T13:06:06.964Z,100888.00
2018-12-10T13:08:35.607Z,100889.00
2018-12-10T13:11:05.010Z,100887.00
2018-12-10T13:13:34.405Z,100874.00
2018-12-10T13:16:03.685Z,100865.00
2018-12-10T13:18:32.963Z,100874.00
2018-12-10T13:21:02.207Z,100903.00
2018-12-10T13:23:31.510Z,100900.00
2018-12-10T13:26:00.983Z,100914.00
2018-12-10T13:28:30.344Z,100901.00
2018-12-10T13:30:59.779Z,100892.00
2018-12-10T13:33:29.041Z,100892.00
2018-12-10T13:35:58.511Z,100885.00
2018-12-10T13:38:27.805Z,100892.00
2018-12-10T13:40:57.056Z,100886.00
2018-12-10T13:43:26.304Z,100898.00
2018-12-10T13:45:55.568Z,100900.00
2018-12-10T13:48:24.956Z,100911.00
2018-12-10T13:50:54.160Z,100907.00
2018-12-10T13:53:23.541Z,100903.00
2018-12-10T13:55:52.835Z,100902.00
2018-12-10T13:58:23.210Z,100915.00
2018-12-10T14:00:52.479Z,100903.00
2018-12-10T14:03:21.742Z,100904.00
2018-12-10T14:05:51.014Z,100901.00
2018-12-10T14:08:20.339Z,100925.00
2018-12-10T14:10:49.687Z,100907.00
2018-12-10T14:13:18.987Z,100913.00
2018-12-10T14:15:48.306Z,100912.00
2018-12-10T14:18:17.790Z,100915.00
2018-12-10T14:20:47.151Z,100920.00
2018-12-10T14:23:16.434Z,100921.00
2018-12-10T14:25:45.689Z,100920.00
2018-12-10T14:28:15.116Z,100918.00
2018-12-10T14:30:44.617Z,100926.00
2018-12-10T14:33:13.968Z,100927.00
2018-12-10T14:35:44.535Z,100913.00
2018-12-10T14:38:13.859Z,100922.00
2018-12-10T14:40:43.098Z,100926.00
2018-12-10T14:43:12.357Z,100924.00
2018-12-10T14:45:41.694Z,100938.00
2018-12-10T14:48:10.969Z,100936.00
2018-12-10T14:50:40.360Z,100935.00
2018-12-10T14:53:09.763Z,100934.00
2018-12-10T14:55:39.043Z,100942.00
2018-12-10T14:58:08.367Z,100950.00
2018-12-10T15:00:37.697Z,100936.00
2018-12-10T15:03:07.087Z,100935.00
2018-12-10T15:05:36.482Z,100950.00
2018-12-10T15:08:05.730Z,100961.00
2018-12-10T15:10:35.026Z,100953.00
2018-12-10T15:13:14.014Z,100946.00
2018-12-10T15:15:43.442Z,100944.00
2018-12-10T15:18:12.874Z,100950.00
2018-12-10T15:20:42.407Z,100944.00
2018-12-10T15:23:11.719Z,100942.00
2018-12-10T15:25:41.005Z,100950.00
2018-12-10T15:28:10.439Z,100948.00
2018-12-10T15:30:39.756Z,100943.00
2018-12-10T15:33:09.103Z,100951.00
2018-12-10T15:35:38.406Z,100955.00
2018-12-10T15:38:07.731Z,100964.00
2018-12-10T15:40:37.017Z,100960.00
2018-12-10T15:43:06.299Z,100963.00
2018-12-10T15:45:35.595Z,100960.00
2018-12-10T15:48:09.067Z,100964.00
2018-12-10T15:50:38.301Z,100970.00
2018-12-10T15:53:07.831Z,100958.00
2018-12-10T15:55:37.210Z,100958.00
2018-12-10T15:58:06.722Z,100964.00
2018-12-10T16:00:36.228Z,100965.00
2018-12-10T16:03:05.729Z,100968.00
2018-12-10T16:05:34.970Z,100961.00
2018-12-10T16:08:04.295Z,100959.00
2018-12-10T16:10:33.571Z,100974.00
2018-12-10T16:16:06.106Z,100974.00
2018-12-10T16:18:35.509Z,100985.00
2018-12-10T16:21:04.756Z,100988.00
2018-12-10T16:23:33.988Z,100987.00
2018-12-10T16:26:03.246Z,100980.00
2018-12-10T16:28:32.555Z,100997.00
2018-12-10T16:31:01.966Z,100994.00
2018-12-10T16:33:31.218Z,100986.00
2018-12-10T16:36:00.813Z,100978.00
2018-12-10T16:38:30.167Z,100988.00
2018-12-10T16:40:59.399Z,100988.00
2018-12-10T16:43:34.849Z,100983.00
2018-12-10T16:46:26.355Z,100985.00
2018-12-10T16:49:03.178Z,100987.00
2018-12-10T16:51:38.192Z,100997.00
2018-12-10T16:54:07.494Z,100991.00
2018-12-10T16:56:42.584Z,100994.00
2018-12-10T16:59:18.170Z,100988.00
2018-12-10T17:01:53.931Z,100982.00
2018-12-10T17:04:26.878Z,100993.00
2018-12-10T17:07:02.040Z,100978.00
2018-12-10T17:09:36.243Z,100991.00
2018-12-10T17:12:07.388Z,100991.00
2018-12-10T17:14:40.658Z,100998.00
2018-12-10T17:17:15.508Z,101003.00
2018-12-10T17:19:46.886Z,100946.00
2018-12-10T17:22:20.073Z,101003.00
2018-12-10T17:24:52.530Z,101006.00
2018-12-10T17:27:27.360Z,101004.00
2018-12-10T17:30:00.476Z,101006.00
2018-12-10T17:32:35.825Z,101005.00
2018-12-10T17:35:10.290Z,101001.00
2018-12-10T17:37:42.768Z,101007.00
2018-12-10T17:46:18.394Z,101022.00
2018-12-10T17:48:47.701Z,101005.00
2018-12-10T17:51:17.076Z,101006.00
2018-12-10T17:53:48.247Z,101012.00
2018-12-10T17:56:17.646Z,101025.00
2018-12-10T17:58:47.171Z,101020.00
2018-12-10T18:01:16.406Z,101007.00
2018-12-10T18:03:56.877Z,101015.00
2018-12-10T18:06:30.165Z,101012.00
2018-12-10T18:08:59.501Z,101011.00
2018-12-10T18:11:35.321Z,101020.00
2018-12-10T18:14:15.100Z,101012.00
2018-12-10T18:16:47.344Z,101025.00
2018-12-10T18:19:16.592Z,101010.00
2018-12-10T18:21:45.911Z,100996.00
2018-12-10T18:24:15.263Z,101008.00
2018-12-10T18:26:45.010Z,101008.00
2018-12-10T18:29:20.299Z,101010.00
2018-12-10T18:31:50.435Z,100998.00
2018-12-10T18:34:20.905Z,100990.00
2018-12-10T18:39:55.157Z,100997.00
2018-12-10T18:42:53.949Z,101003.00
2018-12-10T18:45:23.272Z,101006.00
2018-12-10T18:47:52.614Z,101015.00
2018-12-10T18:50:22.004Z,101011.00
2018-12-10T18:52:51.294Z,101006.00
2018-12-10T18:55:21.622Z,101023.00
2018-12-10T18:57:51.046Z,101032.00
2018-12-10T19:00:27.450Z,101025.00
2018-12-10T19:02:56.748Z,101015.00
2018-12-10T19:05:40.449Z,101024.00
2018-12-10T19:08:09.800Z,101027.00
2018-12-10T19:10:42.159Z,101036.00
2018-12-10T19:13:30.155Z,101030.00
2018-12-10T19:16:02.865Z,101037.00
2018-12-10T19:18:48.135Z,101026.00
2018-12-10T19:21:21.129Z,101050.00
2018-12-10T19:23:56.425Z,101031.00
2018-12-10T19:32:35.188Z,101031.00
2018-12-10T19:38:09.135Z,101040.00
2018-12-10T19:40:54.974Z,101040.00
2018-12-10T19:43:50.088Z,101036.00
2018-12-10T19:52:40.400Z,101048.00
2018-12-10T19:55:19.569Z,101051.00
2018-12-10T19:57:48.994Z,101045.00
2018-12-10T20:00:18.639Z,101071.00
2018-12-10T20:02:47.986Z,101065.00
2018-12-10T20:05:17.506Z,101061.00
2018-12-10T20:07:52.392Z,101069.00
2018-12-10T20:10:21.685Z,101068.00
2018-12-10T20:12:51.216Z,101061.00
2018-12-10T20:15:20.771Z,101054.00
2018-12-10T20:17:50.090Z,101065.00
2018-12-10T20:26:28.096Z,101067.00
2018-12-10T20:28:59.012Z,101066.00
2018-12-10T20:31:28.312Z,101073.00
2018-12-10T20:33:57.786Z,101080.00
2018-12-10T20:36:27.321Z,101088.00
2018-12-10T20:38:57.380Z,101087.00
2018-12-10T20:41:27.073Z,101080.00
2018-12-10T20:43:56.408Z,101083.00
2018-12-10T20:46:26.186Z,101103.00
2018-12-10T20:48:55.477Z,101093.00
2018-12-10T20:54:37.853Z,101085.00
2018-12-10T20:57:15.372Z,101089.00
2018-12-10T20:59:55.107Z,101079.00
2018-12-10T21:02:42.931Z,101079.00
2018-12-10T21:05:12.525Z,101085.00
2018-12-10T21:07:49.576Z,101091.00
2018-12-10T21:10:35.509Z,101100.00
2018-12-10T21:13:16.874Z,101088.00
2018-12-10T21:15:46.354Z,101089.00
2018-12-10T21:21:20.665Z,101100.00
2018-12-10T21:23:49.922Z,101092.00
2018-12-10T21:26:20.247Z,101095.00
2018-12-10T21:28:49.651Z,101084.00
2018-12-10T21:31:18.925Z,101090.00
2018-12-10T21:33:48.196Z,101076.00
2018-12-10T21:36:21.536Z,101081.00
2018-12-10T21:38:50.899Z,101075.00
2018-12-10T21:41:20.219Z,101086.00
2018-12-10T21:43:49.584Z,101100.00
2018-12-10T21:46:18.831Z,101091.00
2018-12-10T21:48:48.091Z,101084.00
2018-12-10T21:51:17.356Z,101092.00
2018-12-10T21:53:47.068Z,101087.00
2018-12-10T21:56:16.354Z,101080.00
2018-12-10T21:58:45.645Z,101087.00
2018-12-10T22:01:15.016Z,101086.00
2018-12-10T22:03:50.663Z,101086.00
2018-12-10T22:06:20.062Z,101078.00
2018-12-10T22:08:49.523Z,101080.00
2018-12-10T22:11:18.787Z,101077.00
2018-12-10T22:13:49.156Z,101081.00
2018-12-10T22:16:18.416Z,101079.00
2018-12-10T22:18:48.183Z,101081.00
2018-12-10T22:21:17.964Z,101075.00
2018-12-10T22:23:47.441Z,101090.00
2018-12-10T22:26:16.878Z,101085.00
2018-12-10T22:28:46.317Z,101081.00
2018-12-10T22:31:16.268Z,101089.00
2018-12-10T22:33:45.842Z,101099.00
2018-12-10T22:36:15.402Z,101100.00
2018-12-10T22:38:44.990Z,101091.00
2018-12-10T22:41:14.595Z,101076.00
2018-12-10T22:43:43.994Z,101095.00
2018-12-10T22:46:13.367Z,101106.00
2018-12-10T22:48:42.688Z,101106.00
2018-12-10T22:51:12.445Z,101095.00
2018-12-10T22:53:41.777Z,101093.00
2018-12-10T22:56:11.076Z,101096.00
2018-12-10T22:58:40.448Z,101089.00
2018-12-10T23:01:10.129Z,101100.00
2018-12-10T23:03:39.919Z,101099.00
2018-12-10T23:06:09.581Z,101111.00
2018-12-10T23:08:38.895Z,101104.00
2018-12-10T23:11:08.172Z,101094.00
2018-12-10T23:13:37.558Z,101095.00
2018-12-10T23:16:07.011Z,101110.00
2018-12-10T23:18:36.288Z,101114.00
2018-12-10T23:21:05.546Z,101117.00
2018-12-10T23:23:34.811Z,101103.00
2018-12-10T23:26:04.147Z,101104.00
2018-12-10T23:28:33.399Z,101111.00
2018-12-10T23:31:02.738Z,101116.00
2018-12-10T23:33:32.000Z,101122.00
2018-12-10T23:36:03.414Z,101118.00
2018-12-10T23:38:32.659Z,101118.00
2018-12-10T23:41:01.970Z,101120.00
2018-12-10T23:43:31.431Z,101117.00
2018-12-10T23:46:00.793Z,101116.00
2018-12-10T23:48:31.183Z,101126.00
2018-12-10T23:51:00.628Z,101119.00
2018-12-10T23:53:29.960Z,101123.00
2018-12-10T23:55:59.486Z,101130.00
2018-12-10T23:58:28.772Z,101125.00
